sensor_id;sensor_type;location;lat;lon;timestamp;pressure;altitude;pressure_sealevel;temperature
78225;BMP280;67498;53.650;10.090;2023-12-20T00:01:03;100810.81;;;5.53
78225;BMP280;67498;53.650;10.090;2023-12-20T00:03:28;100805.97;;;5.52
78225;BMP280;67498;53.650;10.090;2023-12-20T00:05:54;100812.66;;;5.53
78225;BMP280;67498;53.650;10.090;2023-12-20T00:08:19;100823.38;;;5.51
78225;BMP280;67498;53.650;10.090;2023-12-20T00:10:44;100808.47;;;5.41
78225;BMP280;67498;53.650;10.090;2023-12-20T00:13:10;100811.84;;;5.45
78225;BMP280;67498;53.650;10.090;2023-12-20T00:15:36;100809.97;;;5.42
78225;BMP280;67498;53.650;10.090;2023-12-20T00:18:01;100790.97;;;5.31
78225;BMP280;67498;53.650;10.090;2023-12-20T00:20:27;100795.03;;;5.32
78225;BMP280;67498;53.650;10.090;2023-12-20T00:22:56;100795.44;;;5.34
78225;BMP280;67498;53.650;10.090;2023-12-20T00:25:21;100789.44;;;5.26
78225;BMP280;67498;53.650;10.090;2023-12-20T00:27:46;100791.34;;;5.29
78225;BMP280;67498;53.650;10.090;2023-12-20T00:30:12;100797.25;;;5.30
78225;BMP280;67498;53.650;10.090;2023-12-20T00:32:37;100786.84;;;5.26
78225;BMP280;67498;53.650;10.090;2023-12-20T00:35:03;100783.56;;;5.33
78225;BMP280;67498;53.650;10.090;2023-12-20T00:37:28;100776.16;;;5.31
78225;BMP280;67498;53.650;10.090;2023-12-20T00:39:54;100773.97;;;5.30
78225;BMP280;67498;53.650;10.090;2023-12-20T00:42:19;100779.19;;;5.37
78225;BMP280;67498;53.650;10.090;2023-12-20T00:44:44;100769.16;;;5.32
78225;BMP280;67498;53.650;10.090;2023-12-20T00:47:10;100763.97;;;5.32
78225;BMP280;67498;53.650;10.090;2023-12-20T00:49:35;100761.41;;;5.35
78225;BMP280;67498;53.650;10.090;2023-12-20T00:52:00;100759.22;;;5.37
78225;BMP280;67498;53.650;10.090;2023-12-20T00:54:25;100755.50;;;5.35
78225;BMP280;67498;53.650;10.090;2023-12-20T00:56:51;100760.81;;;5.45
78225;BMP280;67498;53.650;10.090;2023-12-20T00:59:16;100753.41;;;5.44
78225;BMP280;67498;53.650;10.090;2023-12-20T01:01:42;100763.44;;;5.53
78225;BMP280;67498;53.650;10.090;2023-12-20T01:04:07;100754.91;;;5.48
78225;BMP280;67498;53.650;10.090;2023-12-20T01:06:33;100764.22;;;5.53
78225;BMP280;67498;53.650;10.090;2023-12-20T01:08:58;100763.50;;;5.56
78225;BMP280;67498;53.650;10.090;2023-12-20T01:11:23;100762.78;;;5.56
78225;BMP280;67498;53.650;10.090;2023-12-20T01:13:48;100765.34;;;5.56
78225;BMP280;67498;53.650;10.090;2023-12-20T01:16:13;100752.31;;;5.48
78225;BMP280;67498;53.650;10.090;2023-12-20T01:18:39;100752.00;;;5.54
78225;BMP280;67498;53.650;10.090;2023-12-20T01:21:04;100751.97;;;5.50
78225;BMP280;67498;53.650;10.090;2023-12-20T01:23:30;100749.75;;;5.48
78225;BMP280;67498;53.650;10.090;2023-12-20T01:25:56;100743.00;;;5.40
78225;BMP280;67498;53.650;10.090;2023-12-20T01:28:21;100747.44;;;5.40
78225;BMP280;67498;53.650;10.090;2023-12-20T01:30:46;100743.31;;;5.35
78225;BMP280;67498;53.650;10.090;2023-12-20T01:33:12;100748.88;;;5.37
78225;BMP280;67498;53.650;10.090;2023-12-20T01:35:37;100736.63;;;5.31
78225;BMP280;67498;53.650;10.090;2023-12-20T01:38:02;100740.69;;;5.32
78225;BMP280;67498;53.650;10.090;2023-12-20T01:40:28;100736.91;;;5.22
78225;BMP280;67498;53.650;10.090;2023-12-20T01:43:06;100740.63;;;5.24
78225;BMP280;67498;53.650;10.090;2023-12-20T01:45:32;100738.06;;;5.28
78225;BMP280;67498;53.650;10.090;2023-12-20T01:47:58;100728.81;;;5.27
78225;BMP280;67498;53.650;10.090;2023-12-20T01:50:24;100722.91;;;5.27
78225;BMP280;67498;53.650;10.090;2023-12-20T01:52:50;100729.22;;;5.29
78225;BMP280;67498;53.650;10.090;2023-12-20T01:55:18;100731.06;;;5.32
78225;BMP280;67498;53.650;10.090;2023-12-20T01:57:44;100729.97;;;5.33
78225;BMP280;67498;53.650;10.090;2023-12-20T02:00:11;100728.50;;;5.36
78225;BMP280;67498;53.650;10.090;2023-12-20T02:02:39;100716.28;;;5.33
78225;BMP280;67498;53.650;10.090;2023-12-20T02:05:08;100730.81;;;5.41
78225;BMP280;67498;53.650;10.090;2023-12-20T02:07:34;100728.16;;;5.37
78225;BMP280;67498;53.650;10.090;2023-12-20T02:10:02;100724.53;;;5.42
78225;BMP280;67498;53.650;10.090;2023-12-20T02:12:29;100708.22;;;5.38
78225;BMP280;67498;53.650;10.090;2023-12-20T02:14:54;100695.25;;;5.34
78225;BMP280;67498;53.650;10.090;2023-12-20T02:17:20;100713.06;;;5.43
78225;BMP280;67498;53.650;10.090;2023-12-20T02:19:45;100704.94;;;5.41
78225;BMP280;67498;53.650;10.090;2023-12-20T02:22:11;100695.72;;;5.43
78225;BMP280;67498;53.650;10.090;2023-12-20T02:24:36;100690.47;;;5.40
78225;BMP280;67498;53.650;10.090;2023-12-20T02:27:02;100703.47;;;5.43
78225;BMP280;67498;53.650;10.090;2023-12-20T02:29:28;100701.63;;;5.44
78225;BMP280;67498;53.650;10.090;2023-12-20T02:31:53;100693.78;;;5.37
78225;BMP280;67498;53.650;10.090;2023-12-20T02:34:18;100701.56;;;5.40
78225;BMP280;67498;53.650;10.090;2023-12-20T02:36:44;100699.38;;;5.42
78225;BMP280;67498;53.650;10.090;2023-12-20T02:39:09;100679.81;;;5.45
78225;BMP280;67498;53.650;10.090;2023-12-20T02:41:34;100678.72;;;5.46
78225;BMP280;67498;53.650;10.090;2023-12-20T02:44:01;100682.06;;;5.46
78225;BMP280;67498;53.650;10.090;2023-12-20T02:46:26;100682.44;;;5.48
78225;BMP280;67498;53.650;10.090;2023-12-20T02:48:51;100678.72;;;5.50
78225;BMP280;67498;53.650;10.090;2023-12-20T02:51:16;100665.78;;;5.46
78225;BMP280;67498;53.650;10.090;2023-12-20T02:53:42;100667.66;;;5.53
78225;BMP280;67498;53.650;10.090;2023-12-20T02:56:07;100666.91;;;5.52
78225;BMP280;67498;53.650;10.090;2023-12-20T02:58:32;100665.06;;;5.53
78225;BMP280;67498;53.650;10.090;2023-12-20T03:00:57;100649.47;;;5.45
78225;BMP280;67498;53.650;10.090;2023-12-20T03:03:23;100650.63;;;5.48
78225;BMP280;67498;53.650;10.090;2023-12-20T03:05:48;100641.00;;;5.48
78225;BMP280;67498;53.650;10.090;2023-12-20T03:08:13;100652.88;;;5.53
78225;BMP280;67498;53.650;10.090;2023-12-20T03:10:38;100648.44;;;5.54
78225;BMP280;67498;53.650;10.090;2023-12-20T03:13:04;100643.28;;;5.54
78225;BMP280;67498;53.650;10.090;2023-12-20T03:15:29;100627.31;;;5.44
78225;BMP280;67498;53.650;10.090;2023-12-20T03:17:54;100639.56;;;5.55
78225;BMP280;67498;53.650;10.090;2023-12-20T03:20:19;100632.53;;;5.52
78225;BMP280;67498;53.650;10.090;2023-12-20T03:22:45;100636.59;;;5.53
78225;BMP280;67498;53.650;10.090;2023-12-20T03:25:10;100632.91;;;5.54
78225;BMP280;67498;53.650;10.090;2023-12-20T03:27:38;100625.09;;;5.50
78225;BMP280;67498;53.650;10.090;2023-12-20T03:30:04;100621.44;;;5.51
78225;BMP280;67498;53.650;10.090;2023-12-20T03:32:30;100619.94;;;5.50
78225;BMP280;67498;53.650;10.090;2023-12-20T03:34:55;100618.47;;;5.53
78225;BMP280;67498;53.650;10.090;2023-12-20T03:37:21;100620.31;;;5.52
78225;BMP280;67498;53.650;10.090;2023-12-20T03:39:47;100623.34;;;5.58
78225;BMP280;67498;53.650;10.090;2023-12-20T03:42:12;100628.53;;;5.58
78225;BMP280;67498;53.650;10.090;2023-12-20T03:44:38;100624.44;;;5.57
78225;BMP280;67498;53.650;10.090;2023-12-20T03:47:04;100615.13;;;5.52
78225;BMP280;67498;53.650;10.090;2023-12-20T03:49:30;100625.94;;;5.58
78225;BMP280;67498;53.650;10.090;2023-12-20T03:51:55;100614.44;;;5.55
78225;BMP280;67498;53.650;10.090;2023-12-20T03:54:20;100609.63;;;5.57
78225;BMP280;67498;53.650;10.090;2023-12-20T03:56:45;100591.09;;;5.52
78225;BMP280;67498;53.650;10.090;2023-12-20T03:59:11;100581.47;;;5.48
78225;BMP280;67498;53.650;10.090;2023-12-20T04:01:36;100600.03;;;5.58
78225;BMP280;67498;53.650;10.090;2023-12-20T04:04:01;100580.75;;;5.52
78225;BMP280;67498;53.650;10.090;2023-12-20T04:06:26;100584.81;;;5.53
78225;BMP280;67498;53.650;10.090;2023-12-20T04:08:52;100575.97;;;5.54
78225;BMP280;67498;53.650;10.090;2023-12-20T04:11:17;100584.47;;;5.54
78225;BMP280;67498;53.650;10.090;2023-12-20T04:13:42;100578.53;;;5.54
78225;BMP280;67498;53.650;10.090;2023-12-20T04:16:08;100580.75;;;5.52
78225;BMP280;67498;53.650;10.090;2023-12-20T04:18:33;100578.19;;;5.55
78225;BMP280;67498;53.650;10.090;2023-12-20T04:20:58;100567.41;;;5.50
78225;BMP280;67498;53.650;10.090;2023-12-20T04:23:23;100558.91;;;5.49
78225;BMP280;67498;53.650;10.090;2023-12-20T04:25:49;100567.44;;;5.53
78225;BMP280;67498;53.650;10.090;2023-12-20T04:28:14;100564.09;;;5.49
78225;BMP280;67498;53.650;10.090;2023-12-20T04:30:39;100559.31;;;5.55
78225;BMP280;67498;53.650;10.090;2023-12-20T04:33:04;100552.31;;;5.55
78225;BMP280;67498;53.650;10.090;2023-12-20T04:35:30;100548.97;;;5.55
78225;BMP280;67498;53.650;10.090;2023-12-20T04:37:55;100537.84;;;5.47
78225;BMP280;67498;53.650;10.090;2023-12-20T04:40:20;100539.69;;;5.46
78225;BMP280;67498;53.650;10.090;2023-12-20T04:42:45;100536.00;;;5.55
78225;BMP280;67498;53.650;10.090;2023-12-20T04:45:11;100540.84;;;5.56
78225;BMP280;67498;53.650;10.090;2023-12-20T04:47:38;100536.41;;;5.57
78225;BMP280;67498;53.650;10.090;2023-12-20T04:50:04;100533.06;;;5.56
78225;BMP280;67498;53.650;10.090;2023-12-20T04:52:29;100534.19;;;5.59
78225;BMP280;67498;53.650;10.090;2023-12-20T04:54:55;100523.06;;;5.55
78225;BMP280;67498;53.650;10.090;2023-12-20T04:57:21;100526.03;;;5.57
78225;BMP280;67498;53.650;10.090;2023-12-20T04:59:46;100528.25;;;5.55
78225;BMP280;67498;53.650;10.090;2023-12-20T05:02:12;100521.59;;;5.54
78225;BMP280;67498;53.650;10.090;2023-12-20T05:04:37;100526.44;;;5.59
78225;BMP280;67498;53.650;10.090;2023-12-20T05:07:02;100520.16;;;5.60
78225;BMP280;67498;53.650;10.090;2023-12-20T05:09:30;100506.84;;;5.58
78225;BMP280;67498;53.650;10.090;2023-12-20T05:11:55;100511.25;;;5.57
78225;BMP280;67498;53.650;10.090;2023-12-20T05:14:20;100514.22;;;5.59
78225;BMP280;67498;53.650;10.090;2023-12-20T05:16:45;100512.03;;;5.65
78225;BMP280;67498;53.650;10.090;2023-12-20T05:19:10;100507.22;;;5.63
78225;BMP280;67498;53.650;10.090;2023-12-20T05:21:36;100512.78;;;5.69
78225;BMP280;67498;53.650;10.090;2023-12-20T05:24:01;100518.69;;;5.66
78225;BMP280;67498;53.650;10.090;2023-12-20T05:26:26;100512.84;;;5.73
78225;BMP280;67498;53.650;10.090;2023-12-20T05:28:51;100501.34;;;5.74
78225;BMP280;67498;53.650;10.090;2023-12-20T05:31:17;100494.66;;;5.69
78225;BMP280;67498;53.650;10.090;2023-12-20T05:33:42;100511.03;;;5.77
78225;BMP280;67498;53.650;10.090;2023-12-20T05:36:08;100507.69;;;5.80
78225;BMP280;67498;53.650;10.090;2023-12-20T05:38:36;100508.41;;;5.80
78225;BMP280;67498;53.650;10.090;2023-12-20T05:41:02;100504.72;;;5.78
78225;BMP280;67498;53.650;10.090;2023-12-20T05:43:27;100509.94;;;5.85
78225;BMP280;67498;53.650;10.090;2023-12-20T05:45:52;100498.44;;;5.82
78225;BMP280;67498;53.650;10.090;2023-12-20T05:48:17;100507.34;;;5.85
78225;BMP280;67498;53.650;10.090;2023-12-20T05:50:42;100503.59;;;5.79
78225;BMP280;67498;53.650;10.090;2023-12-20T05:53:08;100512.13;;;5.83
78225;BMP280;67498;53.650;10.090;2023-12-20T05:55:33;100493.63;;;5.77
78225;BMP280;67498;53.650;10.090;2023-12-20T05:57:59;100501.03;;;5.82
78225;BMP280;67498;53.650;10.090;2023-12-20T06:00:24;100507.28;;;5.81
78225;BMP280;67498;53.650;10.090;2023-12-20T06:02:50;100501.03;;;5.82
78225;BMP280;67498;53.650;10.090;2023-12-20T06:05:15;100497.31;;;5.83
78225;BMP280;67498;53.650;10.090;2023-12-20T06:07:40;100488.03;;;5.79
78225;BMP280;67498;53.650;10.090;2023-12-20T06:10:06;100506.59;;;5.84
78225;BMP280;67498;53.650;10.090;2023-12-20T06:12:31;100496.19;;;5.81
78225;BMP280;67498;53.650;10.090;2023-12-20T06:14:58;100489.56;;;5.83
78225;BMP280;67498;53.650;10.090;2023-12-20T06:17:23;100478.81;;;5.81
78225;BMP280;67498;53.650;10.090;2023-12-20T06:19:49;100465.50;;;5.83
78225;BMP280;67498;53.650;10.090;2023-12-20T06:22:15;100464.78;;;5.86
78225;BMP280;67498;53.650;10.090;2023-12-20T06:24:41;100466.97;;;5.80
78225;BMP280;67498;53.650;10.090;2023-12-20T06:27:06;100459.59;;;5.86
78225;BMP280;67498;53.650;10.090;2023-12-20T06:29:31;100461.84;;;5.87
78225;BMP280;67498;53.650;10.090;2023-12-20T06:31:57;100458.09;;;5.81
78225;BMP280;67498;53.650;10.090;2023-12-20T06:34:22;100463.31;;;5.88
78225;BMP280;67498;53.650;10.090;2023-12-20T06:36:47;100458.91;;;5.89
78225;BMP280;67498;53.650;10.090;2023-12-20T06:39:12;100454.78;;;5.84
78225;BMP280;67498;53.650;10.090;2023-12-20T06:41:39;100452.94;;;5.85
78225;BMP280;67498;53.650;10.090;2023-12-20T06:44:04;100437.41;;;5.85
78225;BMP280;67498;53.650;10.090;2023-12-20T06:46:30;100453.31;;;5.90
78225;BMP280;67498;53.650;10.090;2023-12-20T06:48:55;100456.69;;;5.91
78225;BMP280;67498;53.650;10.090;2023-12-20T06:51:20;100433.72;;;5.89
78225;BMP280;67498;53.650;10.090;2023-12-20T06:53:46;100438.56;;;5.91
78225;BMP280;67498;53.650;10.090;2023-12-20T06:56:11;100434.13;;;5.91
78225;BMP280;67498;53.650;10.090;2023-12-20T06:58:40;100425.94;;;5.89
78225;BMP280;67498;53.650;10.090;2023-12-20T07:01:05;100437.78;;;5.94
78225;BMP280;67498;53.650;10.090;2023-12-20T07:03:30;100419.28;;;5.88
78225;BMP280;67498;53.650;10.090;2023-12-20T07:05:55;100425.22;;;5.89
78225;BMP280;67498;53.650;10.090;2023-12-20T07:08:21;100424.47;;;5.96
78225;BMP280;67498;53.650;10.090;2023-12-20T07:10:46;100422.25;;;5.94
78225;BMP280;67498;53.650;10.090;2023-12-20T07:13:11;100428.56;;;5.93
78225;BMP280;67498;53.650;10.090;2023-12-20T07:15:37;100429.66;;;5.92
78225;BMP280;67498;53.650;10.090;2023-12-20T07:18:02;100430.75;;;5.95
78225;BMP280;67498;53.650;10.090;2023-12-20T07:20:28;100437.06;;;5.97
78225;BMP280;67498;53.650;10.090;2023-12-20T07:22:53;100434.13;;;5.91
78225;BMP280;67498;53.650;10.090;2023-12-20T07:25:18;100425.59;;;5.91
78225;BMP280;67498;53.650;10.090;2023-12-20T07:27:45;100435.97;;;5.98
78225;BMP280;67498;53.650;10.090;2023-12-20T07:30:10;100416.34;;;5.93
78225;BMP280;67498;53.650;10.090;2023-12-20T07:32:36;100415.97;;;5.99
78225;BMP280;67498;53.650;10.090;2023-12-20T07:35:01;100402.63;;;5.89
78225;BMP280;67498;53.650;10.090;2023-12-20T07:37:28;100412.28;;;6.00
78225;BMP280;67498;53.650;10.090;2023-12-20T07:39:53;100410.81;;;5.99
78225;BMP280;67498;53.650;10.090;2023-12-20T07:42:18;100403.41;;;6.01
78225;BMP280;67498;53.650;10.090;2023-12-20T07:44:43;100410.06;;;6.02
78225;BMP280;67498;53.650;10.090;2023-12-20T07:47:09;100392.28;;;5.97
78225;BMP280;67498;53.650;10.090;2023-12-20T07:49:35;100409.72;;;6.03
78225;BMP280;67498;53.650;10.090;2023-12-20T07:52:00;100401.56;;;6.05
78225;BMP280;67498;53.650;10.090;2023-12-20T07:54:26;100395.63;;;6.04
78225;BMP280;67498;53.650;10.090;2023-12-20T07:56:51;100409.34;;;6.05
78225;BMP280;67498;53.650;10.090;2023-12-20T07:59:16;100397.88;;;6.06
78225;BMP280;67498;53.650;10.090;2023-12-20T08:01:42;100399.34;;;6.07
78225;BMP280;67498;53.650;10.090;2023-12-20T08:04:07;100399.72;;;6.05
78225;BMP280;67498;53.650;10.090;2023-12-20T08:06:33;100388.22;;;6.03
78225;BMP280;67498;53.650;10.090;2023-12-20T08:08:58;100400.44;;;6.09
78225;BMP280;67498;53.650;10.090;2023-12-20T08:11:23;100393.06;;;6.04
78225;BMP280;67498;53.650;10.090;2023-12-20T08:13:48;100377.53;;;6.08
78225;BMP280;67498;53.650;10.090;2023-12-20T08:16:14;100388.22;;;6.10
78225;BMP280;67498;53.650;10.090;2023-12-20T08:18:40;100378.97;;;6.12
78225;BMP280;67498;53.650;10.090;2023-12-20T08:21:06;100362.31;;;6.10
78225;BMP280;67498;53.650;10.090;2023-12-20T08:23:33;100366.03;;;6.16
78225;BMP280;67498;53.650;10.090;2023-12-20T08:26:06;100372.69;;;6.17
78225;BMP280;67498;53.650;10.090;2023-12-20T08:28:31;100367.91;;;6.19
78225;BMP280;67498;53.650;10.090;2023-12-20T08:30:56;100360.84;;;6.20
78225;BMP280;67498;53.650;10.090;2023-12-20T08:33:22;100367.50;;;6.17
78225;BMP280;67498;53.650;10.090;2023-12-20T08:35:47;100355.66;;;6.23
78225;BMP280;67498;53.650;10.090;2023-12-20T08:38:12;100344.56;;;6.19
78225;BMP280;67498;53.650;10.090;2023-12-20T08:40:38;100350.47;;;6.27
78225;BMP280;67498;53.650;10.090;2023-12-20T08:43:03;100348.66;;;6.31
78225;BMP280;67498;53.650;10.090;2023-12-20T08:45:28;100335.28;;;6.36
78225;BMP280;67498;53.650;10.090;2023-12-20T08:47:54;100327.91;;;6.42
78225;BMP280;67498;53.650;10.090;2023-12-20T08:50:19;100340.09;;;6.41
78225;BMP280;67498;53.650;10.090;2023-12-20T08:52:44;100340.09;;;6.52
78225;BMP280;67498;53.650;10.090;2023-12-20T08:55:09;100327.16;;;6.59
78225;BMP280;67498;53.650;10.090;2023-12-20T08:57:35;100343.44;;;6.63
78225;BMP280;67498;53.650;10.090;2023-12-20T09:00:01;100337.16;;;6.60
78225;BMP280;67498;53.650;10.090;2023-12-20T09:02:26;100332.34;;;6.59
78225;BMP280;67498;53.650;10.090;2023-12-20T09:04:51;100332.34;;;6.59
78225;BMP280;67498;53.650;10.090;2023-12-20T09:07:26;100322.72;;;6.56
78225;BMP280;67498;53.650;10.090;2023-12-20T09:09:52;100321.22;;;6.48
78225;BMP280;67498;53.650;10.090;2023-12-20T09:12:18;100331.22;;;6.53
78225;BMP280;67498;53.650;10.090;2023-12-20T09:14:45;100327.88;;;6.52
78225;BMP280;67498;53.650;10.090;2023-12-20T09:17:10;100341.59;;;6.46
78225;BMP280;67498;53.650;10.090;2023-12-20T09:19:37;100351.97;;;6.46
78225;BMP280;67498;53.650;10.090;2023-12-20T09:22:02;100355.66;;;6.41
78225;BMP280;67498;53.650;10.090;2023-12-20T09:24:28;100366.78;;;6.31
78225;BMP280;67498;53.650;10.090;2023-12-20T09:26:54;100353.44;;;6.29
78225;BMP280;67498;53.650;10.090;2023-12-20T09:29:19;100344.19;;;6.24
78225;BMP280;67498;53.650;10.090;2023-12-20T09:31:44;100344.97;;;6.18
78225;BMP280;67498;53.650;10.090;2023-12-20T09:34:11;100343.84;;;6.15
78225;BMP280;67498;53.650;10.090;2023-12-20T09:36:36;100344.94;;;6.07
78225;BMP280;67498;53.650;10.090;2023-12-20T09:39:04;100346.78;;;6.06
78225;BMP280;67498;53.650;10.090;2023-12-20T09:41:31;100370.09;;;6.10
78225;BMP280;67498;53.650;10.090;2023-12-20T09:44:02;100364.56;;;6.08
78225;BMP280;67498;53.650;10.090;2023-12-20T09:46:28;100370.47;;;6.05
78225;BMP280;67498;53.650;10.090;2023-12-20T09:48:55;100380.13;;;6.08
78225;BMP280;67498;53.650;10.090;2023-12-20T09:51:20;100388.59;;;6.08
78225;BMP280;67498;53.650;10.090;2023-12-20T09:53:47;100377.50;;;6.04
78225;BMP280;67498;53.650;10.090;2023-12-20T09:56:14;100372.31;;;6.01
78225;BMP280;67498;53.650;10.090;2023-12-20T09:58:39;100364.53;;;5.93
78225;BMP280;67498;53.650;10.090;2023-12-20T10:01:06;100371.56;;;5.93
78225;BMP280;67498;53.650;10.090;2023-12-20T10:03:31;100358.97;;;5.88
78225;BMP280;67498;53.650;10.090;2023-12-20T10:05:57;100345.25;;;5.80
78225;BMP280;67498;53.650;10.090;2023-12-20T10:08:24;100314.16;;;5.80
78225;BMP280;67498;53.650;10.090;2023-12-20T10:10:49;100321.19;;;5.76
78225;BMP280;67498;53.650;10.090;2023-12-20T10:13:15;100357.47;;;5.76
78225;BMP280;67498;53.650;10.090;2023-12-20T10:15:41;100368.19;;;5.75
78225;BMP280;67498;53.650;10.090;2023-12-20T10:18:06;100381.84;;;5.72
78225;BMP280;67498;53.650;10.090;2023-12-20T10:20:32;100372.56;;;5.63
78225;BMP280;67498;53.650;10.090;2023-12-20T10:22:58;100366.66;;;5.59
78225;BMP280;67498;53.650;10.090;2023-12-20T10:25:24;100368.88;;;5.61
78225;BMP280;67498;53.650;10.090;2023-12-20T10:27:50;100360.38;;;5.60
78225;BMP280;67498;53.650;10.090;2023-12-20T10:30:33;100359.63;;;5.63
78225;BMP280;67498;53.650;10.090;2023-12-20T10:32:58;100365.19;;;5.62
78225;BMP280;67498;53.650;10.090;2023-12-20T10:35:23;100340.41;;;5.61
78225;BMP280;67498;53.650;10.090;2023-12-20T10:37:49;100337.44;;;5.55
78225;BMP280;67498;53.650;10.090;2023-12-20T10:40:15;100347.06;;;5.58
78225;BMP280;67498;53.650;10.090;2023-12-20T10:42:41;100333.72;;;5.56
78225;BMP280;67498;53.650;10.090;2023-12-20T10:45:06;100351.13;;;5.56
78225;BMP280;67498;53.650;10.090;2023-12-20T10:47:32;100339.63;;;5.53
78225;BMP280;67498;53.650;10.090;2023-12-20T10:49:59;100323.31;;;5.42
78225;BMP280;67498;53.650;10.090;2023-12-20T10:52:25;100329.97;;;5.43
78225;BMP280;67498;53.650;10.090;2023-12-20T10:54:52;100337.00;;;5.42
78225;BMP280;67498;53.650;10.090;2023-12-20T10:57:18;100333.31;;;5.43
78225;BMP280;67498;53.650;10.090;2023-12-20T10:59:44;100337.03;;;5.46
78225;BMP280;67498;53.650;10.090;2023-12-20T11:02:12;100344.78;;;5.50
78225;BMP280;67498;53.650;10.090;2023-12-20T11:04:50;100345.91;;;5.48
78225;BMP280;67498;53.650;10.090;2023-12-20T11:07:25;100343.69;;;5.47
78225;BMP280;67498;53.650;10.090;2023-12-20T11:09:59;100332.22;;;5.44
78225;BMP280;67498;53.650;10.090;2023-12-20T11:12:34;100337.38;;;5.44
78225;BMP280;67498;53.650;10.090;2023-12-20T11:15:01;100356.25;;;5.41
78225;BMP280;67498;53.650;10.090;2023-12-20T11:17:29;100341.78;;;5.37
78225;BMP280;67498;53.650;10.090;2023-12-20T11:22:20;100371.38;;;5.43
78225;BMP280;67498;53.650;10.090;2023-12-20T11:24:47;100374.34;;;5.41
78225;BMP280;67498;53.650;10.090;2023-12-20T11:27:13;100363.97;;;5.34
78225;BMP280;67498;53.650;10.090;2023-12-20T11:29:38;100381.00;;;5.39
78225;BMP280;67498;53.650;10.090;2023-12-20T11:37:35;100351.38;;;5.33
78225;BMP280;67498;53.650;10.090;2023-12-20T11:40:06;100352.09;;;5.33
78225;BMP280;67498;53.650;10.090;2023-12-20T11:42:39;100362.88;;;5.39
78225;BMP280;67498;53.650;10.090;2023-12-20T11:45:08;100352.16;;;5.37
78225;BMP280;67498;53.650;10.090;2023-12-20T11:47:33;100355.47;;;5.34
78225;BMP280;67498;53.650;10.090;2023-12-20T11:50:00;100354.00;;;5.36
78225;BMP280;67498;53.650;10.090;2023-12-20T11:52:28;100343.97;;;5.31
78225;BMP280;67498;53.650;10.090;2023-12-20T11:54:53;100344.00;;;5.38
78225;BMP280;67498;53.650;10.090;2023-12-20T11:57:19;100348.44;;;5.38
78225;BMP280;67498;53.650;10.090;2023-12-20T11:59:44;100348.44;;;5.38
78225;BMP280;67498;53.650;10.090;2023-12-20T12:02:11;100353.25;;;5.39
78225;BMP280;67498;53.650;10.090;2023-12-20T12:04:37;100358.09;;;5.41
78225;BMP280;67498;53.650;10.090;2023-12-20T12:07:02;100358.09;;;5.48
78225;BMP280;67498;53.650;10.090;2023-12-20T12:09:28;100352.94;;;5.48
78225;BMP280;67498;53.650;10.090;2023-12-20T12:11:54;100357.38;;;5.51
78225;BMP280;67498;53.650;10.090;2023-12-20T12:14:19;100358.84;;;5.52
78225;BMP280;67498;53.650;10.090;2023-12-20T12:16:45;100344.44;;;5.55
78225;BMP280;67498;53.650;10.090;2023-12-20T12:19:21;100340.38;;;5.57
78225;BMP280;67498;53.650;10.090;2023-12-20T12:21:47;100325.22;;;5.56
78225;BMP280;67498;53.650;10.090;2023-12-20T12:24:12;100328.94;;;5.62
78225;BMP280;67498;53.650;10.090;2023-12-20T12:26:38;100325.59;;;5.61
78225;BMP280;67498;53.650;10.090;2023-12-20T12:29:03;100331.53;;;5.69
78225;BMP280;67498;53.650;10.090;2023-12-20T12:31:28;100328.22;;;5.76
78225;BMP280;67498;53.650;10.090;2023-12-20T12:33:53;100309.34;;;5.79
78225;BMP280;67498;53.650;10.090;2023-12-20T12:36:19;100310.88;;;5.90
78225;BMP280;67498;53.650;10.090;2023-12-20T12:38:44;100314.59;;;6.04
78225;BMP280;67498;53.650;10.090;2023-12-20T12:41:09;100317.94;;;6.08
78225;BMP280;67498;53.650;10.090;2023-12-20T12:43:37;100326.41;;;6.12
78225;BMP280;67498;53.650;10.090;2023-12-20T12:46:02;100318.63;;;6.12
78225;BMP280;67498;53.650;10.090;2023-12-20T12:48:28;100313.47;;;6.15
78225;BMP280;67498;53.650;10.090;2023-12-20T12:50:54;100317.91;;;6.22
78225;BMP280;67498;53.650;10.090;2023-12-20T12:53:19;100310.88;;;6.19
78225;BMP280;67498;53.650;10.090;2023-12-20T12:55:44;100318.28;;;6.21
78225;BMP280;67498;53.650;10.090;2023-12-20T12:58:10;100325.31;;;6.27
78225;BMP280;67498;53.650;10.090;2023-12-20T13:00:35;100331.97;;;6.28
78225;BMP280;67498;53.650;10.090;2023-12-20T13:03:00;100316.78;;;6.23
78225;BMP280;67498;53.650;10.090;2023-12-20T13:05:26;100329.75;;;6.20
78225;BMP280;67498;53.650;10.090;2023-12-20T13:07:51;100337.53;;;6.23
78225;BMP280;67498;53.650;10.090;2023-12-20T13:10:16;100321.25;;;6.23
78225;BMP280;67498;53.650;10.090;2023-12-20T13:12:43;100338.66;;;6.22
78225;BMP280;67498;53.650;10.090;2023-12-20T13:15:08;100341.97;;;6.23
78225;BMP280;67498;53.650;10.090;2023-12-20T13:17:34;100330.88;;;6.19
78225;BMP280;67498;53.650;10.090;2023-12-20T13:19:59;100335.69;;;6.17
78225;BMP280;67498;53.650;10.090;2023-12-20T13:22:24;100331.97;;;6.14
78225;BMP280;67498;53.650;10.090;2023-12-20T13:24:50;100331.22;;;6.10
78225;BMP280;67498;53.650;10.090;2023-12-20T13:27:15;100320.84;;;6.10
78225;BMP280;67498;53.650;10.090;2023-12-20T13:29:40;100332.72;;;6.11
78225;BMP280;67498;53.650;10.090;2023-12-20T13:32:06;100335.69;;;6.13
78225;BMP280;67498;53.650;10.090;2023-12-20T13:34:31;100341.59;;;6.13
78225;BMP280;67498;53.650;10.090;2023-12-20T13:36:57;100334.56;;;6.10
78225;BMP280;67498;53.650;10.090;2023-12-20T13:39:22;100337.50;;;6.12
78225;BMP280;67498;53.650;10.090;2023-12-20T13:41:48;100341.25;;;6.15
78225;BMP280;67498;53.650;10.090;2023-12-20T13:44:13;100335.66;;;6.09
78225;BMP280;67498;53.650;10.090;2023-12-20T13:46:39;100341.97;;;6.01
78225;BMP280;67498;53.650;10.090;2023-12-20T13:49:04;100352.72;;;6.03
78225;BMP280;67498;53.650;10.090;2023-12-20T13:51:30;100348.63;;;5.99
78225;BMP280;67498;53.650;10.090;2023-12-20T13:53:55;100343.81;;;5.90
78225;BMP280;67498;53.650;10.090;2023-12-20T13:56:20;100348.22;;;5.86